Etusivu
METAR-TAF:

METAR-TAF

Lentoasemat :

Burlington / Mount Vernon, Washington, Yhdysvallat

Leveyspiiri: 48-28-15N, Pituuspiiri: 122-25-15W, korkeus merenpinnasta: 44 m

Tämänhetkinen sää

Tämä raportti tehtiin 17 minuuttia sitten, kello 02.15 UTC
Tuuli 9 kn koillisesta puuskistuen 15 kn:hen
Lämpötila 9°C
Kosteus 93%
Ilmanpaine 1004 hPa

METAR: KBVS 190215Z AUTO 05009G15KT 09/08 A2964 RMK A01

Aika: 18:32 (02:32 UTC)


TAF: puuttuu

Säähavainnot ja -ennusteet yli 4000 lentoasemalta (METAR- ja TAF-raportit).

Käytössä olevat sääasemat on merkitty karttaan keltaisilla ja punaisilla pisteillä.

Aseta hiiri pisteen päälle nähdäksesi sääaseman nimen.

Klikkaa sitten nähdäksesi säähavainnot ja -ennusteet.

Kartan vaihtaminen: klikkaa mustalla rastilla varustettuja vihreitä pisteitä, niin voit zoomata sisään; viivalla varustettua vihreää pistettä, niin voit zoomata ulos tai vihreitä nuolia, niin pääset viereisille kartoille.


METAR-TAF: